Aviation Digital Data Service (ADDS)

Output produced by METARs form (0744 UTC 28 February 2017)
found at http://aviationweather.gov/adds/metars/
 
KSYR 280539Z 2806/0106 11005KT P6SM BKN120 
     FM281800 15008KT P6SM BKN080 
     FM010000 17012G22KT P6SM OVC050